Prescott, MI (48756)

1:44 PM EDT on September 25, 2016 (GMT -0400)
Cole Canoe Base | | Change Station

Elev 807 ft 44.18 °N, 84.07 °W | Updated 34 seconds ago

Clear
Clear
73.4 °F
Feels Like 77 °F
N
2.2
Wind Variable Wind from East

Today
High -- | Low -- °F
--% Chance of Precip.
Yesterday
High -- | Low -- °F
Precip. -- in
Pressure 30.16 in
Visibility 10.0 miles
Clouds Clear
Heat Index 77 °F
Dew Point 58 °F
Humidity 58%
Rainfall 0.00 in
Snow Depth Not available.
7:27 AM 7:26 PM
Waning Crescent, 26% visible
METAR KOSC 251734Z AUTO 17009G15KT 10SM CLR 20/09 A3016 RMK AO2 T02000092
Pressure 30.16 in
Visibility 10.0 miles
Clouds Clear
Heat Index 77 °F
Dew Point 58 °F
Humidity 58%
Rainfall 0.00 in
Snow Depth Not available.
7:27 AM 7:26 PM
Waning Crescent, 26% visible
METAR KOSC 251734Z AUTO 17009G15KT 10SM CLR 20/09 A3016 RMK AO2 T02000092

10-Day Weather Forecast

Almanac

Astronomy

Sep. 25, 2016 Rise Set
Actual Time
Civil Twilight
Nautical Twilight
Astronomical Twilight
Moon
Length of Visible Light
Length of Day
Tomorrow will be .
, % of the Moon is Illuminated

Today's Extremes

State Highs State Lows

Community

WunderPhotos

Upload Photos

1,941,674 photos uploaded!

WunderBlog® & News

Nearby

Air Quality

  Air Quality AQ Index Pollutant
Not available.

Snow Depth

Station Depth Elevation

Earthquake Activity

City Distance Mag. Time & Date
Minimum magnitude displayed is 2.5.

Coastal Water Temperatures

Place Temperature

Stations

Nearby Weather Stations

Station Location Temp. Windchill Dew Point Humidity Wind Precip. Elev Updated Type
                   

Watches & Warnings

There are currently no watches in effect.